sensor_id;sensor_type;location;lat;lon;timestamp;pressure;altitude;pressure_sealevel;temperature;humidity
22000;BME280;11164;48.818;2.322;2023-01-27T00:00:24;101410.75;;;6.33;51.72
22000;BME280;11164;48.818;2.322;2023-01-27T00:02:49;101404.78;;;6.39;51.33
22000;BME280;11164;48.818;2.322;2023-01-27T00:05:15;101401.38;;;6.47;51.43
22000;BME280;11164;48.818;2.322;2023-01-27T00:07:41;101408.19;;;6.59;51.02
22000;BME280;11164;48.818;2.322;2023-01-27T00:10:14;101401.97;;;6.31;51.58
22000;BME280;11164;48.818;2.322;2023-01-27T00:12:41;101403.97;;;6.29;51.55
22000;BME280;11164;48.818;2.322;2023-01-27T00:15:26;101400.97;;;6.42;51.15
22000;BME280;11164;48.818;2.322;2023-01-27T00:17:52;101404.25;;;6.35;51.42
22000;BME280;11164;48.818;2.322;2023-01-27T00:20:17;101395.66;;;6.32;51.23
22000;BME280;11164;48.818;2.322;2023-01-27T00:23:02;101407.31;;;6.41;50.95
22000;BME280;11164;48.818;2.322;2023-01-27T00:25:47;101408.91;;;6.33;50.99
22000;BME280;11164;48.818;2.322;2023-01-27T00:28:17;101410.00;;;6.41;51.16
22000;BME280;11164;48.818;2.322;2023-01-27T00:30:51;101403.31;;;6.45;50.46
22000;BME280;11164;48.818;2.322;2023-01-27T00:33:16;101415.78;;;6.36;50.91
22000;BME280;11164;48.818;2.322;2023-01-27T00:38:29;101405.63;;;6.40;50.93
22000;BME280;11164;48.818;2.322;2023-01-27T00:40:55;101405.78;;;6.10;51.76
22000;BME280;11164;48.818;2.322;2023-01-27T00:43:40;101402.59;;;6.25;51.19
22000;BME280;11164;48.818;2.322;2023-01-27T00:46:06;101400.91;;;6.24;51.40
22000;BME280;11164;48.818;2.322;2023-01-27T00:48:32;101386.28;;;6.18;51.51
22000;BME280;11164;48.818;2.322;2023-01-27T00:50:57;101394.75;;;6.13;51.67
22000;BME280;11164;48.818;2.322;2023-01-27T00:53:23;101391.88;;;6.25;51.41
22000;BME280;11164;48.818;2.322;2023-01-27T00:55:48;101398.34;;;6.32;51.25
22000;BME280;11164;48.818;2.322;2023-01-27T00:58:14;101393.78;;;6.42;50.98
22000;BME280;11164;48.818;2.322;2023-01-27T01:00:39;101387.22;;;6.27;51.38
22000;BME280;11164;48.818;2.322;2023-01-27T01:03:05;101392.59;;;6.45;51.11
22000;BME280;11164;48.818;2.322;2023-01-27T01:05:30;101388.03;;;6.27;51.42
22000;BME280;11164;48.818;2.322;2023-01-27T01:07:56;101390.81;;;6.17;51.36
22000;BME280;11164;48.818;2.322;2023-01-27T01:10:21;101397.44;;;6.41;51.08
22000;BME280;11164;48.818;2.322;2023-01-27T01:12:47;101389.72;;;6.38;50.98
22000;BME280;11164;48.818;2.322;2023-01-27T01:15:12;101388.81;;;6.20;51.67
22000;BME280;11164;48.818;2.322;2023-01-27T01:17:37;101376.34;;;6.28;51.15
22000;BME280;11164;48.818;2.322;2023-01-27T01:20:03;101378.34;;;6.26;51.46
22000;BME280;11164;48.818;2.322;2023-01-27T01:22:29;101371.28;;;6.35;50.92
22000;BME280;11164;48.818;2.322;2023-01-27T01:24:54;101380.81;;;6.10;51.65
22000;BME280;11164;48.818;2.322;2023-01-27T01:27:19;101384.91;;;6.14;51.18
22000;BME280;11164;48.818;2.322;2023-01-27T01:29:45;101380.63;;;6.21;51.08
22000;BME280;11164;48.818;2.322;2023-01-27T01:32:10;101382.69;;;6.27;50.90
22000;BME280;11164;48.818;2.322;2023-01-27T01:34:36;101379.22;;;6.17;51.49
22000;BME280;11164;48.818;2.322;2023-01-27T01:37:02;101378.09;;;6.20;51.59
22000;BME280;11164;48.818;2.322;2023-01-27T01:39:28;101375.75;;;6.34;51.06
22000;BME280;11164;48.818;2.322;2023-01-27T01:41:54;101374.13;;;6.24;51.06
22000;BME280;11164;48.818;2.322;2023-01-27T01:44:21;101374.25;;;6.22;51.36
22000;BME280;11164;48.818;2.322;2023-01-27T01:46:47;101372.75;;;6.20;51.71
22000;BME280;11164;48.818;2.322;2023-01-27T01:49:13;101367.03;;;6.32;51.21
22000;BME280;11164;48.818;2.322;2023-01-27T01:51:42;101369.91;;;6.21;51.15
22000;BME280;11164;48.818;2.322;2023-01-27T01:54:18;101365.63;;;6.28;50.99
22000;BME280;11164;48.818;2.322;2023-01-27T01:56:55;101371.31;;;6.43;50.55
22000;BME280;11164;48.818;2.322;2023-01-27T01:59:27;101368.34;;;6.46;50.74
22000;BME280;11164;48.818;2.322;2023-01-27T02:01:57;101375.31;;;6.39;50.66
22000;BME280;11164;48.818;2.322;2023-01-27T02:04:27;101367.59;;;6.08;51.69
22000;BME280;11164;48.818;2.322;2023-01-27T02:07:10;101365.41;;;6.22;51.16
22000;BME280;11164;48.818;2.322;2023-01-27T02:09:38;101360.84;;;6.32;51.10
22000;BME280;11164;48.818;2.322;2023-01-27T02:12:03;101362.97;;;6.28;50.80
22000;BME280;11164;48.818;2.322;2023-01-27T02:14:29;101362.38;;;6.34;50.62
22000;BME280;11164;48.818;2.322;2023-01-27T02:16:56;101358.84;;;6.34;50.63
22000;BME280;11164;48.818;2.322;2023-01-27T02:22:10;101348.09;;;6.16;51.03
22000;BME280;11164;48.818;2.322;2023-01-27T02:24:44;101349.72;;;6.27;50.90
22000;BME280;11164;48.818;2.322;2023-01-27T02:27:11;101344.91;;;6.30;50.88
22000;BME280;11164;48.818;2.322;2023-01-27T02:29:38;101344.38;;;6.27;50.84
22000;BME280;11164;48.818;2.322;2023-01-27T02:32:03;101342.81;;;6.06;51.17
22000;BME280;11164;48.818;2.322;2023-01-27T02:34:32;101342.53;;;6.27;51.14
22000;BME280;11164;48.818;2.322;2023-01-27T02:37:02;101338.75;;;6.20;50.99
22000;BME280;11164;48.818;2.322;2023-01-27T02:39:36;101348.19;;;6.24;50.53
22000;BME280;11164;48.818;2.322;2023-01-27T02:42:04;101342.06;;;6.14;51.09
22000;BME280;11164;48.818;2.322;2023-01-27T02:44:32;101338.91;;;6.18;51.19
22000;BME280;11164;48.818;2.322;2023-01-27T02:46:57;101333.75;;;5.89;51.25
22000;BME280;11164;48.818;2.322;2023-01-27T02:49:23;101333.66;;;6.09;50.99
22000;BME280;11164;48.818;2.322;2023-01-27T02:51:48;101343.00;;;6.23;50.62
22000;BME280;11164;48.818;2.322;2023-01-27T02:54:13;101342.38;;;6.29;50.29
22000;BME280;11164;48.818;2.322;2023-01-27T02:56:39;101339.47;;;5.76;51.74
22000;BME280;11164;48.818;2.322;2023-01-27T02:59:04;101346.03;;;6.10;50.91
22000;BME280;11164;48.818;2.322;2023-01-27T03:01:29;101334.47;;;6.09;50.85
22000;BME280;11164;48.818;2.322;2023-01-27T03:03:57;101340.84;;;6.26;50.42
22000;BME280;11164;48.818;2.322;2023-01-27T03:06:22;101336.31;;;6.09;50.94
22000;BME280;11164;48.818;2.322;2023-01-27T03:08:48;101336.84;;;6.12;50.52
22000;BME280;11164;48.818;2.322;2023-01-27T03:11:13;101334.91;;;6.05;50.89
22000;BME280;11164;48.818;2.322;2023-01-27T03:13:39;101340.16;;;6.24;50.46
22000;BME280;11164;48.818;2.322;2023-01-27T03:16:05;101336.81;;;5.94;51.01
22000;BME280;11164;48.818;2.322;2023-01-27T03:18:50;101328.44;;;6.07;50.64
22000;BME280;11164;48.818;2.322;2023-01-27T03:21:18;101339.84;;;6.09;50.81
22000;BME280;11164;48.818;2.322;2023-01-27T03:23:44;101324.22;;;6.05;50.92
22000;BME280;11164;48.818;2.322;2023-01-27T03:26:13;101324.84;;;6.16;50.31
22000;BME280;11164;48.818;2.322;2023-01-27T03:28:38;101332.63;;;6.10;50.49
22000;BME280;11164;48.818;2.322;2023-01-27T03:31:06;101335.09;;;6.21;50.03
22000;BME280;11164;48.818;2.322;2023-01-27T03:33:33;101343.44;;;6.18;50.32
22000;BME280;11164;48.818;2.322;2023-01-27T03:36:03;101336.25;;;6.18;50.40
22000;BME280;11164;48.818;2.322;2023-01-27T03:38:47;101331.13;;;6.25;50.21
22000;BME280;11164;48.818;2.322;2023-01-27T03:41:32;101323.22;;;6.33;49.89
22000;BME280;11164;48.818;2.322;2023-01-27T03:44:16;101340.78;;;6.36;49.98
22000;BME280;11164;48.818;2.322;2023-01-27T03:47:00;101331.84;;;6.45;49.48
22000;BME280;11164;48.818;2.322;2023-01-27T03:49:25;101324.22;;;6.50;49.64
22000;BME280;11164;48.818;2.322;2023-01-27T03:51:51;101326.72;;;6.34;49.70
22000;BME280;11164;48.818;2.322;2023-01-27T03:54:16;101336.63;;;6.06;50.86
22000;BME280;11164;48.818;2.322;2023-01-27T03:56:41;101331.16;;;5.97;50.86
22000;BME280;11164;48.818;2.322;2023-01-27T03:59:07;101329.50;;;6.14;50.45
22000;BME280;11164;48.818;2.322;2023-01-27T04:01:32;101335.00;;;6.13;50.32
22000;BME280;11164;48.818;2.322;2023-01-27T04:03:57;101337.84;;;6.11;50.25
22000;BME280;11164;48.818;2.322;2023-01-27T04:06:42;101331.56;;;6.21;49.82
22000;BME280;11164;48.818;2.322;2023-01-27T04:09:21;101330.63;;;6.12;50.19
22000;BME280;11164;48.818;2.322;2023-01-27T04:11:46;101337.63;;;6.23;50.32
22000;BME280;11164;48.818;2.322;2023-01-27T04:16:52;101325.75;;;6.07;50.32
22000;BME280;11164;48.818;2.322;2023-01-27T04:19:18;101322.06;;;6.08;50.49
22000;BME280;11164;48.818;2.322;2023-01-27T04:21:44;101331.47;;;5.94;50.55
22000;BME280;11164;48.818;2.322;2023-01-27T04:24:12;101326.38;;;6.19;50.12
22000;BME280;11164;48.818;2.322;2023-01-27T04:26:44;101320.22;;;5.91;50.90
22000;BME280;11164;48.818;2.322;2023-01-27T04:29:11;101317.25;;;5.94;50.76
22000;BME280;11164;48.818;2.322;2023-01-27T04:31:37;101321.19;;;6.17;49.90
22000;BME280;11164;48.818;2.322;2023-01-27T04:34:02;101323.25;;;6.24;50.02
22000;BME280;11164;48.818;2.322;2023-01-27T04:36:27;101317.88;;;6.24;50.09
22000;BME280;11164;48.818;2.322;2023-01-27T04:38:53;101317.88;;;6.24;50.01
22000;BME280;11164;48.818;2.322;2023-01-27T04:41:18;101315.78;;;5.99;50.54
22000;BME280;11164;48.818;2.322;2023-01-27T04:43:43;101314.13;;;5.98;50.34
22000;BME280;11164;48.818;2.322;2023-01-27T04:46:09;101324.44;;;6.11;50.24
22000;BME280;11164;48.818;2.322;2023-01-27T04:48:34;101309.84;;;6.06;50.43
22000;BME280;11164;48.818;2.322;2023-01-27T04:50:59;101315.63;;;6.01;50.36
22000;BME280;11164;48.818;2.322;2023-01-27T04:53:25;101314.44;;;6.13;50.23
22000;BME280;11164;48.818;2.322;2023-01-27T04:55:50;101318.56;;;6.26;50.09
22000;BME280;11164;48.818;2.322;2023-01-27T04:58:16;101304.63;;;6.22;50.05
22000;BME280;11164;48.818;2.322;2023-01-27T05:00:43;101315.88;;;6.26;49.96
22000;BME280;11164;48.818;2.322;2023-01-27T05:03:08;101305.88;;;6.28;49.91
22000;BME280;11164;48.818;2.322;2023-01-27T05:05:35;101313.69;;;6.21;49.66
22000;BME280;11164;48.818;2.322;2023-01-27T05:08:04;101309.16;;;6.04;50.27
22000;BME280;11164;48.818;2.322;2023-01-27T05:10:31;101303.03;;;6.11;50.08
22000;BME280;11164;48.818;2.322;2023-01-27T05:12:57;101305.72;;;6.11;50.26
22000;BME280;11164;48.818;2.322;2023-01-27T05:15:23;101303.63;;;6.33;49.57
22000;BME280;11164;48.818;2.322;2023-01-27T05:17:49;101302.63;;;6.34;49.30
22000;BME280;11164;48.818;2.322;2023-01-27T05:20:15;101297.09;;;6.35;49.56
22000;BME280;11164;48.818;2.322;2023-01-27T05:22:40;101309.81;;;6.33;49.43
22000;BME280;11164;48.818;2.322;2023-01-27T05:25:07;101296.28;;;6.35;49.39
22000;BME280;11164;48.818;2.322;2023-01-27T05:27:32;101305.53;;;6.41;49.39
22000;BME280;11164;48.818;2.322;2023-01-27T05:29:57;101300.53;;;6.28;49.49
22000;BME280;11164;48.818;2.322;2023-01-27T05:32:23;101307.13;;;6.33;49.53
22000;BME280;11164;48.818;2.322;2023-01-27T05:34:48;101309.81;;;6.33;49.32
22000;BME280;11164;48.818;2.322;2023-01-27T05:37:13;101304.88;;;6.29;49.60
22000;BME280;11164;48.818;2.322;2023-01-27T05:39:39;101297.13;;;6.26;49.60
22000;BME280;11164;48.818;2.322;2023-01-27T05:42:04;101308.22;;;6.31;49.57
22000;BME280;11164;48.818;2.322;2023-01-27T05:44:29;101308.97;;;6.33;49.44
22000;BME280;11164;48.818;2.322;2023-01-27T05:46:55;101307.81;;;6.35;49.58
22000;BME280;11164;48.818;2.322;2023-01-27T05:49:20;101304.53;;;6.42;49.19
22000;BME280;11164;48.818;2.322;2023-01-27T05:51:45;101301.44;;;6.18;49.92
22000;BME280;11164;48.818;2.322;2023-01-27T05:54:11;101304.03;;;6.28;49.83
22000;BME280;11164;48.818;2.322;2023-01-27T05:56:36;101301.97;;;6.22;49.60
22000;BME280;11164;48.818;2.322;2023-01-27T05:59:02;101310.16;;;6.21;49.72
22000;BME280;11164;48.818;2.322;2023-01-27T06:01:30;101309.81;;;6.33;49.62
22000;BME280;11164;48.818;2.322;2023-01-27T06:03:56;101315.84;;;6.35;49.29
22000;BME280;11164;48.818;2.322;2023-01-27T06:06:22;101319.09;;;6.29;49.03
22000;BME280;11164;48.818;2.322;2023-01-27T06:08:48;101306.88;;;6.27;49.49
22000;BME280;11164;48.818;2.322;2023-01-27T06:11:15;101312.06;;;6.10;50.00
22000;BME280;11164;48.818;2.322;2023-01-27T06:13:42;101300.69;;;6.26;49.42
22000;BME280;11164;48.818;2.322;2023-01-27T06:16:09;101317.34;;;6.20;49.47
22000;BME280;11164;48.818;2.322;2023-01-27T06:18:35;101314.44;;;6.13;49.61
22000;BME280;11164;48.818;2.322;2023-01-27T06:21:02;101324.88;;;6.34;49.51
22000;BME280;11164;48.818;2.322;2023-01-27T06:23:28;101326.00;;;6.14;49.67
22000;BME280;11164;48.818;2.322;2023-01-27T06:25:54;101318.03;;;6.04;49.52
22000;BME280;11164;48.818;2.322;2023-01-27T06:28:20;101322.06;;;5.90;49.97
22000;BME280;11164;48.818;2.322;2023-01-27T06:30:46;101335.38;;;6.00;50.05
22000;BME280;11164;48.818;2.322;2023-01-27T06:33:12;101323.09;;;6.07;49.93
22000;BME280;11164;48.818;2.322;2023-01-27T06:35:38;101336.09;;;6.20;49.87
22000;BME280;11164;48.818;2.322;2023-01-27T06:38:07;101336.72;;;6.14;49.44
22000;BME280;11164;48.818;2.322;2023-01-27T06:40:33;101333.84;;;6.15;49.76
22000;BME280;11164;48.818;2.322;2023-01-27T06:42:59;101328.44;;;6.07;49.69
22000;BME280;11164;48.818;2.322;2023-01-27T06:45:25;101329.03;;;6.01;49.31
22000;BME280;11164;48.818;2.322;2023-01-27T06:47:57;101325.66;;;5.99;49.37
22000;BME280;11164;48.818;2.322;2023-01-27T06:50:24;101323.38;;;6.22;49.55
22000;BME280;11164;48.818;2.322;2023-01-27T06:52:50;101326.41;;;6.37;49.05
22000;BME280;11164;48.818;2.322;2023-01-27T06:55:16;101321.72;;;6.21;49.29
22000;BME280;11164;48.818;2.322;2023-01-27T06:57:43;101310.81;;;6.05;49.86
22000;BME280;11164;48.818;2.322;2023-01-27T07:00:11;101329.50;;;6.14;49.42
22000;BME280;11164;48.818;2.322;2023-01-27T07:02:36;101331.34;;;6.14;49.47
22000;BME280;11164;48.818;2.322;2023-01-27T07:05:02;101323.94;;;5.80;50.30
22000;BME280;11164;48.818;2.322;2023-01-27T07:07:27;101329.31;;;5.98;49.81
22000;BME280;11164;48.818;2.322;2023-01-27T07:09:53;101331.03;;;6.17;49.28
22000;BME280;11164;48.818;2.322;2023-01-27T07:12:18;101331.81;;;6.09;49.57
22000;BME280;11164;48.818;2.322;2023-01-27T07:14:43;101327.53;;;6.16;49.25
22000;BME280;11164;48.818;2.322;2023-01-27T07:17:08;101332.38;;;6.03;49.62
22000;BME280;11164;48.818;2.322;2023-01-27T07:19:34;101340.66;;;6.10;49.43
22000;BME280;11164;48.818;2.322;2023-01-27T07:21:59;101342.25;;;5.85;49.09
22000;BME280;11164;48.818;2.322;2023-01-27T07:24:25;101344.16;;;5.92;49.75
22000;BME280;11164;48.818;2.322;2023-01-27T07:26:50;101340.78;;;5.90;49.54
22000;BME280;11164;48.818;2.322;2023-01-27T07:29:16;101354.34;;;6.07;49.40
22000;BME280;11164;48.818;2.322;2023-01-27T07:31:41;101353.97;;;6.02;49.61
22000;BME280;11164;48.818;2.322;2023-01-27T07:34:06;101353.25;;;5.99;49.68
22000;BME280;11164;48.818;2.322;2023-01-27T07:36:32;101353.34;;;5.90;49.92
22000;BME280;11164;48.818;2.322;2023-01-27T07:38:57;101357.91;;;6.25;49.05
22000;BME280;11164;48.818;2.322;2023-01-27T07:41:22;101345.34;;;6.26;48.63
22000;BME280;11164;48.818;2.322;2023-01-27T07:43:50;101352.00;;;6.22;48.99
22000;BME280;11164;48.818;2.322;2023-01-27T07:46:15;101362.34;;;6.16;49.16
22000;BME280;11164;48.818;2.322;2023-01-27T07:48:40;101358.59;;;6.27;48.47
22000;BME280;11164;48.818;2.322;2023-01-27T07:51:10;101351.75;;;6.15;48.90
22000;BME280;11164;48.818;2.322;2023-01-27T07:53:36;101376.69;;;6.15;49.36
22000;BME280;11164;48.818;2.322;2023-01-27T07:56:01;101365.53;;;6.20;48.83
22000;BME280;11164;48.818;2.322;2023-01-27T07:58:26;101374.59;;;6.19;49.09
22000;BME280;11164;48.818;2.322;2023-01-27T08:00:52;101372.47;;;5.95;49.53
22000;BME280;11164;48.818;2.322;2023-01-27T08:03:22;101375.00;;;5.96;49.57
22000;BME280;11164;48.818;2.322;2023-01-27T08:05:48;101376.66;;;6.25;49.03
22000;BME280;11164;48.818;2.322;2023-01-27T08:08:14;101360.56;;;6.35;48.42
22000;BME280;11164;48.818;2.322;2023-01-27T08:10:39;101379.59;;;6.50;48.48
22000;BME280;11164;48.818;2.322;2023-01-27T08:13:05;101381.97;;;6.35;48.81
22000;BME280;11164;48.818;2.322;2023-01-27T08:15:30;101400.06;;;6.23;49.13
22000;BME280;11164;48.818;2.322;2023-01-27T08:17:57;101387.81;;;5.93;49.62
22000;BME280;11164;48.818;2.322;2023-01-27T08:20:25;101399.97;;;5.87;49.42
22000;BME280;11164;48.818;2.322;2023-01-27T08:22:50;101377.56;;;5.88;49.91
22000;BME280;11164;48.818;2.322;2023-01-27T08:25:16;101387.59;;;6.14;49.31
22000;BME280;11164;48.818;2.322;2023-01-27T08:27:42;101389.06;;;6.26;49.11
22000;BME280;11164;48.818;2.322;2023-01-27T08:30:07;101388.59;;;6.03;49.46
22000;BME280;11164;48.818;2.322;2023-01-27T08:32:33;101390.69;;;6.09;49.29
22000;BME280;11164;48.818;2.322;2023-01-27T08:34:59;101386.19;;;6.10;49.06
22000;BME280;11164;48.818;2.322;2023-01-27T08:37:24;101394.50;;;6.07;49.30
22000;BME280;11164;48.818;2.322;2023-01-27T08:39:50;101395.91;;;6.11;49.61
22000;BME280;11164;48.818;2.322;2023-01-27T08:42:15;101396.03;;;5.91;49.44
22000;BME280;11164;48.818;2.322;2023-01-27T08:44:41;101401.13;;;6.12;49.02
22000;BME280;11164;48.818;2.322;2023-01-27T08:47:06;101399.38;;;6.21;48.82
22000;BME280;11164;48.818;2.322;2023-01-27T08:49:31;101397.97;;;6.17;48.93
22000;BME280;11164;48.818;2.322;2023-01-27T08:51:57;101396.09;;;6.27;48.98
22000;BME280;11164;48.818;2.322;2023-01-27T08:54:22;101400.72;;;6.35;48.46
22000;BME280;11164;48.818;2.322;2023-01-27T08:56:47;101407.06;;;6.34;48.77
22000;BME280;11164;48.818;2.322;2023-01-27T08:59:13;101403.72;;;6.50;48.40
22000;BME280;11164;48.818;2.322;2023-01-27T09:01:38;101410.53;;;6.16;49.07
22000;BME280;11164;48.818;2.322;2023-01-27T09:04:05;101403.03;;;5.92;49.38
22000;BME280;11164;48.818;2.322;2023-01-27T09:06:31;101413.81;;;5.83;49.67
22000;BME280;11164;48.818;2.322;2023-01-27T09:08:56;101409.00;;;5.86;49.49
22000;BME280;11164;48.818;2.322;2023-01-27T09:11:35;101414.13;;;5.70;49.68
22000;BME280;11164;48.818;2.322;2023-01-27T09:14:01;101409.56;;;5.80;49.67
22000;BME280;11164;48.818;2.322;2023-01-27T09:16:26;101422.13;;;6.07;48.75
22000;BME280;11164;48.818;2.322;2023-01-27T09:18:51;101422.78;;;6.19;48.54
22000;BME280;11164;48.818;2.322;2023-01-27T09:21:17;101420.41;;;6.16;49.11
22000;BME280;11164;48.818;2.322;2023-01-27T09:23:42;101420.72;;;6.03;48.91
22000;BME280;11164;48.818;2.322;2023-01-27T09:26:07;101418.81;;;5.95;49.13
22000;BME280;11164;48.818;2.322;2023-01-27T09:28:33;101417.19;;;5.85;49.41
22000;BME280;11164;48.818;2.322;2023-01-27T09:30:58;101417.19;;;5.75;49.41
22000;BME280;11164;48.818;2.322;2023-01-27T09:33:24;101421.63;;;5.94;48.82
22000;BME280;11164;48.818;2.322;2023-01-27T09:36:02;101422.44;;;6.04;48.58
22000;BME280;11164;48.818;2.322;2023-01-27T09:38:32;101424.81;;;5.79;49.34
22000;BME280;11164;48.818;2.322;2023-01-27T09:49:50;101429.16;;;5.33;49.12
22000;BME280;11164;48.818;2.322;2023-01-27T10:06:03;101444.16;;;5.64;48.60
22000;BME280;11164;48.818;2.322;2023-01-27T10:11:27;101442.44;;;5.72;47.23
22000;BME280;11164;48.818;2.322;2023-01-27T10:25:11;101448.59;;;5.83;48.17
22000;BME280;11164;48.818;2.322;2023-01-27T10:27:46;101447.41;;;5.57;48.57
22000;BME280;11164;48.818;2.322;2023-01-27T10:30:33;101453.06;;;5.92;47.02
22000;BME280;11164;48.818;2.322;2023-01-27T10:33:19;101448.25;;;5.95;46.07
22000;BME280;11164;48.818;2.322;2023-01-27T10:35:53;101448.31;;;6.13;47.16
22000;BME280;11164;48.818;2.322;2023-01-27T10:40:58;101451.25;;;6.20;48.13
22000;BME280;11164;48.818;2.322;2023-01-27T10:46:06;101447.97;;;6.26;46.32
22000;BME280;11164;48.818;2.322;2023-01-27T10:48:45;101445.53;;;5.77;46.69
22000;BME280;11164;48.818;2.322;2023-01-27T10:51:53;101459.56;;;6.17;44.20
22000;BME280;11164;48.818;2.322;2023-01-27T10:54:36;101458.03;;;6.14;47.31
22000;BME280;11164;48.818;2.322;2023-01-27T10:57:13;101455.53;;;5.66;46.40
22000;BME280;11164;48.818;2.322;2023-01-27T10:59:52;101437.13;;;5.53;47.45
22000;BME280;11164;48.818;2.322;2023-01-27T11:02:38;101461.66;;;5.48;47.93
22000;BME280;11164;48.818;2.322;2023-01-27T11:05:17;101448.91;;;5.70;47.57
22000;BME280;11164;48.818;2.322;2023-01-27T11:07:53;101455.66;;;5.74;47.22
22000;BME280;11164;48.818;2.322;2023-01-27T11:10:35;101449.47;;;5.73;47.93
22000;BME280;11164;48.818;2.322;2023-01-27T11:13:02;101450.16;;;5.75;48.25
22000;BME280;11164;48.818;2.322;2023-01-27T11:15:32;101448.66;;;6.01;47.30
22000;BME280;11164;48.818;2.322;2023-01-27T11:18:09;101447.41;;;5.95;48.13
22000;BME280;11164;48.818;2.322;2023-01-27T11:20:42;101450.19;;;6.41;46.20
22000;BME280;11164;48.818;2.322;2023-01-27T11:23:12;101449.00;;;6.15;47.18
22000;BME280;11164;48.818;2.322;2023-01-27T11:30:57;101436.00;;;5.46;47.61
22000;BME280;11164;48.818;2.322;2023-01-27T11:33:33;101431.91;;;5.61;47.57
22000;BME280;11164;48.818;2.322;2023-01-27T11:36:02;101435.97;;;6.03;47.56
22000;BME280;11164;48.818;2.322;2023-01-27T11:38:27;101434.38;;;6.10;47.16
22000;BME280;11164;48.818;2.322;2023-01-27T11:40:53;101433.41;;;6.39;46.77
22000;BME280;11164;48.818;2.322;2023-01-27T11:43:22;101421.69;;;6.12;46.82
22000;BME280;11164;48.818;2.322;2023-01-27T11:45:49;101413.19;;;5.89;47.92
22000;BME280;11164;48.818;2.322;2023-01-27T11:48:18;101419.00;;;6.12;47.40
22000;BME280;11164;48.818;2.322;2023-01-27T11:50:44;101418.22;;;6.02;47.89
22000;BME280;11164;48.818;2.322;2023-01-27T11:53:23;101416.13;;;6.33;45.71
22000;BME280;11164;48.818;2.322;2023-01-27T11:56:17;101413.84;;;6.38;45.39
22000;BME280;11164;48.818;2.322;2023-01-27T11:58:53;101413.03;;;5.63;47.69
22000;BME280;11164;48.818;2.322;2023-01-27T12:01:24;101421.66;;;5.47;48.43
22000;BME280;11164;48.818;2.322;2023-01-27T12:06:47;101417.91;;;5.77;46.07
22000;BME280;11164;48.818;2.322;2023-01-27T12:09:35;101422.97;;;5.80;45.92
22000;BME280;11164;48.818;2.322;2023-01-27T12:14:38;101413.97;;;6.09;46.95
22000;BME280;11164;48.818;2.322;2023-01-27T12:17:05;101407.66;;;5.63;48.10
22000;BME280;11164;48.818;2.322;2023-01-27T12:19:35;101407.72;;;5.90;47.42
22000;BME280;11164;48.818;2.322;2023-01-27T12:22:14;101409.03;;;6.04;47.27
22000;BME280;11164;48.818;2.322;2023-01-27T12:24:48;101390.44;;;6.03;47.06
22000;BME280;11164;48.818;2.322;2023-01-27T12:27:20;101380.09;;;5.52;46.48
22000;BME280;11164;48.818;2.322;2023-01-27T12:29:54;101394.44;;;5.61;47.39
22000;BME280;11164;48.818;2.322;2023-01-27T12:32:23;101393.88;;;5.57;47.84
22000;BME280;11164;48.818;2.322;2023-01-27T12:34:55;101386.69;;;5.95;46.97
22000;BME280;11164;48.818;2.322;2023-01-27T12:37:41;101399.09;;;5.96;46.65
22000;BME280;11164;48.818;2.322;2023-01-27T12:40:17;101394.56;;;5.97;46.59
22000;BME280;11164;48.818;2.322;2023-01-27T12:42:48;101399.56;;;5.82;46.86
22000;BME280;11164;48.818;2.322;2023-01-27T12:45:27;101391.94;;;5.87;46.53
22000;BME280;11164;48.818;2.322;2023-01-27T12:48:13;101386.81;;;6.22;46.67
22000;BME280;11164;48.818;2.322;2023-01-27T12:53:24;101390.34;;;5.94;46.32
22000;BME280;11164;48.818;2.322;2023-01-27T12:55:54;101378.22;;;5.25;48.45
22000;BME280;11164;48.818;2.322;2023-01-27T13:01:28;101380.88;;;5.72;46.58
22000;BME280;11164;48.818;2.322;2023-01-27T13:06:30;101380.28;;;5.78;47.27
22000;BME280;11164;48.818;2.322;2023-01-27T13:08:59;101384.44;;;5.91;47.40
22000;BME280;11164;48.818;2.322;2023-01-27T13:11:35;101385.75;;;5.87;46.38
22000;BME280;11164;48.818;2.322;2023-01-27T13:14:06;101368.06;;;5.76;47.30
22000;BME280;11164;48.818;2.322;2023-01-27T13:16:32;101387.78;;;5.65;48.01
22000;BME280;11164;48.818;2.322;2023-01-27T13:18:59;101388.91;;;6.28;46.37
22000;BME280;11164;48.818;2.322;2023-01-27T13:21:30;101378.94;;;6.20;46.87
22000;BME280;11164;48.818;2.322;2023-01-27T13:23:58;101386.38;;;6.26;46.84
22000;BME280;11164;48.818;2.322;2023-01-27T13:26:29;101383.75;;;6.44;45.88
22000;BME280;11164;48.818;2.322;2023-01-27T13:31:51;101385.88;;;5.85;47.45
22000;BME280;11164;48.818;2.322;2023-01-27T13:37:11;101365.97;;;5.97;46.64
22000;BME280;11164;48.818;2.322;2023-01-27T13:39:52;101375.63;;;5.80;47.02
22000;BME280;11164;48.818;2.322;2023-01-27T13:45:05;101378.09;;;5.64;47.49
22000;BME280;11164;48.818;2.322;2023-01-27T13:47:46;101385.38;;;5.99;46.03
22000;BME280;11164;48.818;2.322;2023-01-27T13:52:56;101379.34;;;5.22;48.48
22000;BME280;11164;48.818;2.322;2023-01-27T13:55:56;101386.59;;;5.50;47.27
22000;BME280;11164;48.818;2.322;2023-01-27T13:58:29;101382.34;;;5.57;47.82
22000;BME280;11164;48.818;2.322;2023-01-27T14:01:14;101380.22;;;5.60;46.31
22000;BME280;11164;48.818;2.322;2023-01-27T14:12:25;101391.44;;;5.27;46.44
22000;BME280;11164;48.818;2.322;2023-01-27T14:17:45;101399.22;;;5.67;46.24
22000;BME280;11164;48.818;2.322;2023-01-27T14:23:00;101397.03;;;5.80;46.79
22000;BME280;11164;48.818;2.322;2023-01-27T14:30:52;101404.59;;;6.23;44.96
22000;BME280;11164;48.818;2.322;2023-01-27T14:33:36;101412.53;;;5.77;46.68
22000;BME280;11164;48.818;2.322;2023-01-27T14:36:10;101410.66;;;5.87;46.86
22000;BME280;11164;48.818;2.322;2023-01-27T14:38:48;101400.66;;;5.89;46.64
22000;BME280;11164;48.818;2.322;2023-01-27T14:41:44;101415.75;;;5.80;45.89
22000;BME280;11164;48.818;2.322;2023-01-27T14:47:10;101419.72;;;5.86;44.93
22000;BME280;11164;48.818;2.322;2023-01-27T14:52:29;101421.38;;;5.87;45.84
22000;BME280;11164;48.818;2.322;2023-01-27T14:58:49;101428.19;;;6.09;45.45